sensor_id;sensor_type;location;lat;lon;timestamp;pressure;altitude;pressure_sealevel;temperature;humidity
57628;BME280;43451;49.060;10.616;2023-02-17T00:00:28;97585.06;;;2.66;100.00
57628;BME280;43451;49.060;10.616;2023-02-17T00:02:57;97580.97;;;2.77;100.00
57628;BME280;43451;49.060;10.616;2023-02-17T00:05:24;97574.03;;;2.76;100.00
57628;BME280;43451;49.060;10.616;2023-02-17T00:07:50;97577.78;;;2.75;100.00
57628;BME280;43451;49.060;10.616;2023-02-17T00:10:15;97583.81;;;2.38;100.00
57628;BME280;43451;49.060;10.616;2023-02-17T00:12:41;97581.94;;;2.29;100.00
57628;BME280;43451;49.060;10.616;2023-02-17T00:15:07;97578.66;;;2.41;100.00
57628;BME280;43451;49.060;10.616;2023-02-17T00:17:32;97570.09;;;2.56;100.00
57628;BME280;43451;49.060;10.616;2023-02-17T00:19:58;97563.00;;;2.61;100.00
57628;BME280;43451;49.060;10.616;2023-02-17T00:22:23;97566.94;;;2.54;100.00
57628;BME280;43451;49.060;10.616;2023-02-17T00:24:49;97565.50;;;2.74;100.00
57628;BME280;43451;49.060;10.616;2023-02-17T00:27:15;97564.84;;;2.77;100.00
57628;BME280;43451;49.060;10.616;2023-02-17T00:29:40;97560.41;;;2.82;100.00
57628;BME280;43451;49.060;10.616;2023-02-17T00:32:06;97559.28;;;2.91;100.00
57628;BME280;43451;49.060;10.616;2023-02-17T00:34:31;97566.69;;;3.03;100.00
57628;BME280;43451;49.060;10.616;2023-02-17T00:36:57;97563.44;;;3.27;100.00
57628;BME280;43451;49.060;10.616;2023-02-17T00:39:22;97554.88;;;3.34;100.00
57628;BME280;43451;49.060;10.616;2023-02-17T00:41:48;97557.81;;;3.49;100.00
57628;BME280;43451;49.060;10.616;2023-02-17T00:44:18;97550.25;;;3.43;100.00
57628;BME280;43451;49.060;10.616;2023-02-17T00:46:45;97561.31;;;3.41;100.00
57628;BME280;43451;49.060;10.616;2023-02-17T00:49:15;97555.44;;;3.48;100.00
57628;BME280;43451;49.060;10.616;2023-02-17T00:51:42;97557.56;;;3.63;100.00
57628;BME280;43451;49.060;10.616;2023-02-17T00:54:07;97557.31;;;3.77;100.00
57628;BME280;43451;49.060;10.616;2023-02-17T00:56:33;97553.66;;;4.03;100.00
57628;BME280;43451;49.060;10.616;2023-02-17T00:58:58;97555.63;;;4.14;100.00
57628;BME280;43451;49.060;10.616;2023-02-17T01:01:23;97549.63;;;3.97;100.00
57628;BME280;43451;49.060;10.616;2023-02-17T01:03:49;97558.91;;;3.99;100.00
57628;BME280;43451;49.060;10.616;2023-02-17T01:06:23;97557.94;;;4.04;100.00
57628;BME280;43451;49.060;10.616;2023-02-17T01:08:49;97560.28;;;4.05;100.00
57628;BME280;43451;49.060;10.616;2023-02-17T01:11:19;97550.53;;;4.01;100.00
57628;BME280;43451;49.060;10.616;2023-02-17T01:13:45;97554.84;;;3.93;100.00
57628;BME280;43451;49.060;10.616;2023-02-17T01:16:16;97549.47;;;4.14;100.00
57628;BME280;43451;49.060;10.616;2023-02-17T01:18:42;97544.59;;;4.49;100.00
57628;BME280;43451;49.060;10.616;2023-02-17T01:21:24;97546.03;;;4.47;100.00
57628;BME280;43451;49.060;10.616;2023-02-17T01:23:52;97551.53;;;4.50;100.00
57628;BME280;43451;49.060;10.616;2023-02-17T01:26:21;97543.72;;;4.57;100.00
57628;BME280;43451;49.060;10.616;2023-02-17T01:28:48;97536.88;;;4.48;100.00
57628;BME280;43451;49.060;10.616;2023-02-17T01:31:14;97535.38;;;4.50;100.00
57628;BME280;43451;49.060;10.616;2023-02-17T01:33:39;97533.81;;;4.49;100.00
57628;BME280;43451;49.060;10.616;2023-02-17T01:36:07;97531.72;;;4.55;100.00
57628;BME280;43451;49.060;10.616;2023-02-17T01:38:34;97534.78;;;4.32;100.00
57628;BME280;43451;49.060;10.616;2023-02-17T01:41:00;97531.44;;;4.35;100.00
57628;BME280;43451;49.060;10.616;2023-02-17T01:43:25;97520.84;;;4.51;100.00
57628;BME280;43451;49.060;10.616;2023-02-17T01:45:53;97527.47;;;4.66;100.00
57628;BME280;43451;49.060;10.616;2023-02-17T01:48:31;97513.22;;;4.99;100.00
57628;BME280;43451;49.060;10.616;2023-02-17T01:51:02;97514.78;;;5.12;100.00
57628;BME280;43451;49.060;10.616;2023-02-17T01:53:36;97509.31;;;5.21;100.00
57628;BME280;43451;49.060;10.616;2023-02-17T01:56:04;97498.63;;;5.24;100.00
57628;BME280;43451;49.060;10.616;2023-02-17T01:58:31;97502.31;;;5.20;100.00
57628;BME280;43451;49.060;10.616;2023-02-17T02:01:00;97495.59;;;5.13;100.00
57628;BME280;43451;49.060;10.616;2023-02-17T02:03:29;97489.97;;;5.06;100.00
57628;BME280;43451;49.060;10.616;2023-02-17T02:05:57;97492.47;;;5.24;100.00
57628;BME280;43451;49.060;10.616;2023-02-17T02:08:26;97486.63;;;5.34;100.00
57628;BME280;43451;49.060;10.616;2023-02-17T02:10:52;97488.31;;;5.14;100.00
57628;BME280;43451;49.060;10.616;2023-02-17T02:13:17;97485.25;;;5.03;100.00
57628;BME280;43451;49.060;10.616;2023-02-17T02:15:47;97489.09;;;5.02;100.00
57628;BME280;43451;49.060;10.616;2023-02-17T02:18:33;97490.88;;;5.23;100.00
57628;BME280;43451;49.060;10.616;2023-02-17T02:32:32;97476.19;;;5.08;100.00
57628;BME280;43451;49.060;10.616;2023-02-17T02:34:37;97471.81;;;5.03;100.00
57628;BME280;43451;49.060;10.616;2023-02-17T02:37:14;97473.59;;;4.99;100.00
57628;BME280;43451;49.060;10.616;2023-02-17T02:39:43;97460.81;;;5.21;100.00
57628;BME280;43451;49.060;10.616;2023-02-17T02:42:14;97468.66;;;5.26;100.00
57628;BME280;43451;49.060;10.616;2023-02-17T02:44:41;97470.34;;;5.30;100.00
57628;BME280;43451;49.060;10.616;2023-02-17T02:47:45;97466.84;;;5.42;100.00
57628;BME280;43451;49.060;10.616;2023-02-17T02:50:14;97447.97;;;5.54;100.00
57628;BME280;43451;49.060;10.616;2023-02-17T02:53:18;97440.81;;;5.22;100.00
57628;BME280;43451;49.060;10.616;2023-02-17T02:55:53;97438.13;;;5.34;100.00
57628;BME280;43451;49.060;10.616;2023-02-17T02:58:24;97441.41;;;5.27;100.00
57628;BME280;43451;49.060;10.616;2023-02-17T03:00:56;97432.53;;;5.27;100.00
57628;BME280;43451;49.060;10.616;2023-02-17T03:08:42;97431.50;;;4.95;100.00
57628;BME280;43451;49.060;10.616;2023-02-17T03:11:09;97434.44;;;4.89;100.00
57628;BME280;43451;49.060;10.616;2023-02-17T03:13:35;97432.44;;;4.86;100.00
57628;BME280;43451;49.060;10.616;2023-02-17T03:16:05;97431.97;;;4.84;100.00
57628;BME280;43451;49.060;10.616;2023-02-17T03:18:32;97436.13;;;5.19;100.00
57628;BME280;43451;49.060;10.616;2023-02-17T03:21:02;97438.69;;;5.27;100.00
57628;BME280;43451;49.060;10.616;2023-02-17T03:23:28;97434.66;;;5.21;100.00
57628;BME280;43451;49.060;10.616;2023-02-17T03:25:54;97435.44;;;5.22;100.00
57628;BME280;43451;49.060;10.616;2023-02-17T03:28:19;97436.13;;;5.19;100.00
57628;BME280;43451;49.060;10.616;2023-02-17T03:30:45;97434.00;;;5.24;100.00
57628;BME280;43451;49.060;10.616;2023-02-17T03:33:10;97438.81;;;5.31;100.00
57628;BME280;43451;49.060;10.616;2023-02-17T03:35:36;97433.19;;;5.36;100.00
57628;BME280;43451;49.060;10.616;2023-02-17T03:38:02;97431.03;;;5.42;100.00
57628;BME280;43451;49.060;10.616;2023-02-17T03:40:27;97431.28;;;5.37;100.00
57628;BME280;43451;49.060;10.616;2023-02-17T03:42:55;97426.19;;;5.47;100.00
57628;BME280;43451;49.060;10.616;2023-02-17T03:47:48;97422.63;;;5.31;100.00
57628;BME280;43451;49.060;10.616;2023-02-17T03:50:14;97425.13;;;5.36;100.00
57628;BME280;43451;49.060;10.616;2023-02-17T03:52:39;97419.47;;;5.41;100.00
57628;BME280;43451;49.060;10.616;2023-02-17T03:55:05;97417.16;;;5.27;100.00
57628;BME280;43451;49.060;10.616;2023-02-17T03:57:30;97408.59;;;5.25;100.00
57628;BME280;43451;49.060;10.616;2023-02-17T03:59:56;97416.91;;;5.32;100.00
57628;BME280;43451;49.060;10.616;2023-02-17T04:02:22;97410.94;;;5.39;100.00
57628;BME280;43451;49.060;10.616;2023-02-17T04:04:47;97409.03;;;5.40;100.00
57628;BME280;43451;49.060;10.616;2023-02-17T04:07:13;97411.09;;;5.30;100.00
57628;BME280;43451;49.060;10.616;2023-02-17T04:09:38;97421.72;;;5.39;100.00
57628;BME280;43451;49.060;10.616;2023-02-17T04:12:04;97413.19;;;5.49;100.00
57628;BME280;43451;49.060;10.616;2023-02-17T04:14:29;97416.69;;;5.38;100.00
57628;BME280;43451;49.060;10.616;2023-02-17T04:16:55;97419.94;;;5.31;100.00
57628;BME280;43451;49.060;10.616;2023-02-17T04:19:20;97416.13;;;5.20;100.00
57628;BME280;43451;49.060;10.616;2023-02-17T04:21:46;97417.72;;;5.21;100.00
57628;BME280;43451;49.060;10.616;2023-02-17T04:24:11;97417.50;;;5.01;100.00
57628;BME280;43451;49.060;10.616;2023-02-17T04:26:36;97417.38;;;5.10;100.00
57628;BME280;43451;49.060;10.616;2023-02-17T04:29:03;97416.69;;;5.01;100.00
57628;BME280;43451;49.060;10.616;2023-02-17T04:31:29;97408.72;;;5.17;100.00
57628;BME280;43451;49.060;10.616;2023-02-17T04:33:54;97413.44;;;5.20;100.00
57628;BME280;43451;49.060;10.616;2023-02-17T04:36:19;97414.44;;;5.27;100.00
57628;BME280;43451;49.060;10.616;2023-02-17T04:38:45;97416.13;;;5.32;100.00
57628;BME280;43451;49.060;10.616;2023-02-17T04:41:10;97416.09;;;5.44;100.00
57628;BME280;43451;49.060;10.616;2023-02-17T04:43:36;97410.22;;;5.54;100.00
57628;BME280;43451;49.060;10.616;2023-02-17T04:46:02;97416.97;;;5.48;100.00
57628;BME280;43451;49.060;10.616;2023-02-17T04:48:27;97404.38;;;5.65;100.00
57628;BME280;43451;49.060;10.616;2023-02-17T04:50:53;97404.16;;;5.57;100.00
57628;BME280;43451;49.060;10.616;2023-02-17T04:53:18;97410.22;;;5.54;100.00
57628;BME280;43451;49.060;10.616;2023-02-17T04:55:50;97405.94;;;5.66;100.00
57628;BME280;43451;49.060;10.616;2023-02-17T04:58:17;97408.38;;;5.71;100.00
57628;BME280;43451;49.060;10.616;2023-02-17T05:00:43;97406.03;;;5.69;100.00
57628;BME280;43451;49.060;10.616;2023-02-17T05:03:08;97410.47;;;5.62;100.00
57628;BME280;43451;49.060;10.616;2023-02-17T05:05:33;97414.75;;;5.50;100.00
57628;BME280;43451;49.060;10.616;2023-02-17T05:07:59;97421.69;;;5.51;100.00
57628;BME280;43451;49.060;10.616;2023-02-17T05:10:25;97410.03;;;5.47;100.00
57628;BME280;43451;49.060;10.616;2023-02-17T05:12:50;97425.31;;;5.43;100.00
57628;BME280;43451;49.060;10.616;2023-02-17T05:15:16;97427.22;;;5.43;100.00
57628;BME280;43451;49.060;10.616;2023-02-17T05:17:42;97419.81;;;5.40;100.00
57628;BME280;43451;49.060;10.616;2023-02-17T05:20:08;97421.03;;;5.42;100.00
57628;BME280;43451;49.060;10.616;2023-02-17T05:22:34;97419.72;;;5.36;100.00
57628;BME280;43451;49.060;10.616;2023-02-17T05:24:59;97419.22;;;5.58;100.00
57628;BME280;43451;49.060;10.616;2023-02-17T05:27:25;97420.34;;;5.86;100.00
57628;BME280;43451;49.060;10.616;2023-02-17T05:29:50;97420.00;;;5.99;100.00
57628;BME280;43451;49.060;10.616;2023-02-17T05:32:16;97427.66;;;5.97;100.00
57628;BME280;43451;49.060;10.616;2023-02-17T05:34:42;97425.50;;;6.03;100.00
57628;BME280;43451;49.060;10.616;2023-02-17T05:37:07;97424.22;;;6.13;100.00
57628;BME280;43451;49.060;10.616;2023-02-17T05:39:33;97413.53;;;6.16;100.00
57628;BME280;43451;49.060;10.616;2023-02-17T05:41:58;97415.16;;;6.21;99.96
57628;BME280;43451;49.060;10.616;2023-02-17T05:44:23;97414.56;;;6.27;99.51
57628;BME280;43451;49.060;10.616;2023-02-17T05:46:49;97414.09;;;6.38;98.95
57628;BME280;43451;49.060;10.616;2023-02-17T05:49:14;97415.28;;;6.40;98.98
57628;BME280;43451;49.060;10.616;2023-02-17T05:51:40;97410.25;;;6.39;99.88
57628;BME280;43451;49.060;10.616;2023-02-17T05:54:05;97416.06;;;6.25;100.00
57628;BME280;43451;49.060;10.616;2023-02-17T05:56:32;97412.34;;;6.45;100.00
57628;BME280;43451;49.060;10.616;2023-02-17T05:58:57;97408.59;;;6.66;100.00
57628;BME280;43451;49.060;10.616;2023-02-17T06:01:24;97394.84;;;6.71;100.00
57628;BME280;43451;49.060;10.616;2023-02-17T06:03:50;97397.47;;;6.67;100.00
57628;BME280;43451;49.060;10.616;2023-02-17T06:06:15;97394.06;;;6.70;100.00
57628;BME280;43451;49.060;10.616;2023-02-17T06:08:41;97408.09;;;6.76;100.00
57628;BME280;43451;49.060;10.616;2023-02-17T06:11:06;97410.72;;;6.88;100.00
57628;BME280;43451;49.060;10.616;2023-02-17T06:13:32;97411.28;;;6.82;100.00
57628;BME280;43451;49.060;10.616;2023-02-17T06:15:57;97405.31;;;6.88;100.00
57628;BME280;43451;49.060;10.616;2023-02-17T06:18:23;97407.41;;;6.79;100.00
57628;BME280;43451;49.060;10.616;2023-02-17T06:20:48;97411.41;;;6.85;100.00
57628;BME280;43451;49.060;10.616;2023-02-17T06:23:14;97412.44;;;6.81;100.00
57628;BME280;43451;49.060;10.616;2023-02-17T06:25:39;97409.28;;;6.94;100.00
57628;BME280;43451;49.060;10.616;2023-02-17T06:28:05;97413.56;;;6.95;100.00
57628;BME280;43451;49.060;10.616;2023-02-17T06:30:30;97418.97;;;6.80;100.00
57628;BME280;43451;49.060;10.616;2023-02-17T06:32:56;97414.88;;;6.70;100.00
57628;BME280;43451;49.060;10.616;2023-02-17T06:35:23;97414.59;;;6.75;100.00
57628;BME280;43451;49.060;10.616;2023-02-17T06:37:49;97413.66;;;6.83;100.00
57628;BME280;43451;49.060;10.616;2023-02-17T06:40:15;97416.44;;;6.87;100.00
57628;BME280;43451;49.060;10.616;2023-02-17T06:42:40;97422.44;;;6.96;100.00
57628;BME280;43451;49.060;10.616;2023-02-17T06:45:06;97436.22;;;6.91;100.00
57628;BME280;43451;49.060;10.616;2023-02-17T06:47:33;97433.50;;;7.07;100.00
57628;BME280;43451;49.060;10.616;2023-02-17T06:49:59;97426.00;;;7.00;100.00
57628;BME280;43451;49.060;10.616;2023-02-17T06:52:24;97419.72;;;7.12;100.00
57628;BME280;43451;49.060;10.616;2023-02-17T06:54:49;97427.81;;;7.28;100.00
57628;BME280;43451;49.060;10.616;2023-02-17T06:57:16;97430.84;;;7.26;100.00
57628;BME280;43451;49.060;10.616;2023-02-17T06:59:42;97429.84;;;7.15;100.00
57628;BME280;43451;49.060;10.616;2023-02-17T07:02:11;97431.75;;;7.30;100.00
57628;BME280;43451;49.060;10.616;2023-02-17T07:04:38;97448.75;;;7.15;100.00
57628;BME280;43451;49.060;10.616;2023-02-17T07:07:04;97435.69;;;7.17;100.00
57628;BME280;43451;49.060;10.616;2023-02-17T07:09:29;97443.19;;;7.08;100.00
57628;BME280;43451;49.060;10.616;2023-02-17T07:11:55;97444.66;;;7.21;100.00
57628;BME280;43451;49.060;10.616;2023-02-17T07:14:22;97449.78;;;7.26;100.00
57628;BME280;43451;49.060;10.616;2023-02-17T07:16:47;97445.25;;;7.30;100.00
57628;BME280;43451;49.060;10.616;2023-02-17T07:19:13;97450.69;;;7.50;100.00
57628;BME280;43451;49.060;10.616;2023-02-17T07:21:38;97436.19;;;7.58;100.00
57628;BME280;43451;49.060;10.616;2023-02-17T07:24:05;97433.91;;;7.60;100.00
57628;BME280;43451;49.060;10.616;2023-02-17T07:26:30;97438.53;;;7.59;100.00
57628;BME280;43451;49.060;10.616;2023-02-17T07:28:56;97444.88;;;7.67;100.00
57628;BME280;43451;49.060;10.616;2023-02-17T07:31:21;97448.47;;;7.71;100.00
57628;BME280;43451;49.060;10.616;2023-02-17T07:33:47;97438.50;;;7.75;100.00
57628;BME280;43451;49.060;10.616;2023-02-17T07:36:17;97445.25;;;7.85;100.00
57628;BME280;43451;49.060;10.616;2023-02-17T07:38:43;97434.75;;;7.99;100.00
57628;BME280;43451;49.060;10.616;2023-02-17T07:41:12;97447.44;;;8.18;100.00
57628;BME280;43451;49.060;10.616;2023-02-17T07:43:37;97442.56;;;8.04;100.00
57628;BME280;43451;49.060;10.616;2023-02-17T07:46:04;97434.31;;;7.97;100.00
57628;BME280;43451;49.060;10.616;2023-02-17T07:48:30;97449.91;;;8.04;100.00
57628;BME280;43451;49.060;10.616;2023-02-17T07:50:56;97437.91;;;8.05;100.00
57628;BME280;43451;49.060;10.616;2023-02-17T07:53:21;97454.72;;;7.95;100.00
57628;BME280;43451;49.060;10.616;2023-02-17T07:55:47;97443.19;;;7.98;100.00
57628;BME280;43451;49.060;10.616;2023-02-17T07:58:12;97445.19;;;8.01;100.00
57628;BME280;43451;49.060;10.616;2023-02-17T08:00:38;97448.97;;;7.96;100.00
57628;BME280;43451;49.060;10.616;2023-02-17T08:03:03;97447.91;;;8.01;100.00
57628;BME280;43451;49.060;10.616;2023-02-17T08:05:29;97433.59;;;8.00;100.00
57628;BME280;43451;49.060;10.616;2023-02-17T08:07:54;97442.56;;;8.04;100.00
57628;BME280;43451;49.060;10.616;2023-02-17T08:10:39;97454.16;;;8.05;100.00
57628;BME280;43451;49.060;10.616;2023-02-17T08:13:24;97447.19;;;8.04;100.00
57628;BME280;43451;49.060;10.616;2023-02-17T08:15:50;97444.91;;;8.06;100.00
57628;BME280;43451;49.060;10.616;2023-02-17T08:18:15;97451.03;;;8.22;100.00
57628;BME280;43451;49.060;10.616;2023-02-17T08:20:41;97453.75;;;8.22;100.00
57628;BME280;43451;49.060;10.616;2023-02-17T08:23:06;97458.16;;;8.11;100.00
57628;BME280;43451;49.060;10.616;2023-02-17T08:25:33;97456.00;;;8.20;100.00
57628;BME280;43451;49.060;10.616;2023-02-17T08:28:00;97459.88;;;8.19;100.00
57628;BME280;43451;49.060;10.616;2023-02-17T08:30:26;97462.69;;;8.26;100.00
57628;BME280;43451;49.060;10.616;2023-02-17T08:32:51;97451.75;;;8.39;100.00
57628;BME280;43451;49.060;10.616;2023-02-17T08:35:17;97457.38;;;8.10;100.00
57628;BME280;43451;49.060;10.616;2023-02-17T08:37:48;97458.50;;;8.29;100.00
57628;BME280;43451;49.060;10.616;2023-02-17T08:40:14;97454.97;;;8.25;100.00
57628;BME280;43451;49.060;10.616;2023-02-17T08:42:40;97463.06;;;8.25;100.00
57628;BME280;43451;49.060;10.616;2023-02-17T08:45:06;97473.81;;;8.21;100.00
57628;BME280;43451;49.060;10.616;2023-02-17T08:47:33;97448.44;;;8.29;100.00
57628;BME280;43451;49.060;10.616;2023-02-17T08:49:58;97447.56;;;8.22;100.00
57628;BME280;43451;49.060;10.616;2023-02-17T08:52:24;97451.44;;;8.24;100.00
57628;BME280;43451;49.060;10.616;2023-02-17T08:54:49;97452.44;;;8.35;100.00
57628;BME280;43451;49.060;10.616;2023-02-17T08:57:16;97458.72;;;8.20;100.00
57628;BME280;43451;49.060;10.616;2023-02-17T08:59:43;97464.91;;;8.40;100.00
57628;BME280;43451;49.060;10.616;2023-02-17T09:02:12;97462.06;;;8.52;100.00
57628;BME280;43451;49.060;10.616;2023-02-17T09:04:38;97462.81;;;8.53;100.00
57628;BME280;43451;49.060;10.616;2023-02-17T09:07:03;97457.91;;;8.58;100.00
57628;BME280;43451;49.060;10.616;2023-02-17T09:09:29;97464.53;;;8.61;100.00
57628;BME280;43451;49.060;10.616;2023-02-17T09:11:56;97456.59;;;8.72;100.00
57628;BME280;43451;49.060;10.616;2023-02-17T09:14:22;97462.50;;;8.77;100.00
57628;BME280;43451;49.060;10.616;2023-02-17T09:16:49;97467.06;;;8.73;100.00
57628;BME280;43451;49.060;10.616;2023-02-17T09:19:16;97466.66;;;8.94;100.00
57628;BME280;43451;49.060;10.616;2023-02-17T09:21:41;97467.44;;;8.95;100.00
57628;BME280;43451;49.060;10.616;2023-02-17T09:24:07;97462.09;;;8.75;100.00
57628;BME280;43451;49.060;10.616;2023-02-17T09:26:32;97468.47;;;8.87;100.00
57628;BME280;43451;49.060;10.616;2023-02-17T09:28:59;97466.84;;;8.82;100.00
57628;BME280;43451;49.060;10.616;2023-02-17T09:31:26;97467.19;;;8.80;100.00
57628;BME280;43451;49.060;10.616;2023-02-17T09:33:53;97473.88;;;8.87;100.00
57628;BME280;43451;49.060;10.616;2023-02-17T09:36:25;97480.44;;;8.86;100.00
57628;BME280;43451;49.060;10.616;2023-02-17T09:38:51;97482.84;;;8.91;100.00
57628;BME280;43451;49.060;10.616;2023-02-17T09:43:49;97485.72;;;8.78;100.00
57628;BME280;43451;49.060;10.616;2023-02-17T09:46:32;97471.53;;;9.08;100.00
57628;BME280;43451;49.060;10.616;2023-02-17T09:49:06;97482.72;;;8.83;100.00
57628;BME280;43451;49.060;10.616;2023-02-17T09:54:56;97478.88;;;8.84;100.00
57628;BME280;43451;49.060;10.616;2023-02-17T09:57:26;97476.13;;;9.04;100.00
57628;BME280;43451;49.060;10.616;2023-02-17T09:59:58;97485.50;;;9.10;100.00
57628;BME280;43451;49.060;10.616;2023-02-17T10:05:03;97473.19;;;9.16;100.00
57628;BME280;43451;49.060;10.616;2023-02-17T10:07:38;97480.06;;;9.10;100.00
57628;BME280;43451;49.060;10.616;2023-02-17T10:10:21;97472.59;;;9.26;100.00
57628;BME280;43451;49.060;10.616;2023-02-17T10:12:53;97470.22;;;8.98;100.00
57628;BME280;43451;49.060;10.616;2023-02-17T10:15:24;97481.94;;;9.06;100.00
57628;BME280;43451;49.060;10.616;2023-02-17T10:17:53;97470.00;;;8.88;100.00
57628;BME280;43451;49.060;10.616;2023-02-17T10:20:29;97479.34;;;8.90;100.00
57628;BME280;43451;49.060;10.616;2023-02-17T10:23:03;97459.78;;;9.23;100.00
57628;BME280;43451;49.060;10.616;2023-02-17T10:28:30;97456.06;;;9.35;100.00
57628;BME280;43451;49.060;10.616;2023-02-17T10:31:11;97461.75;;;9.53;100.00
57628;BME280;43451;49.060;10.616;2023-02-17T10:33:39;97458.44;;;9.67;100.00
57628;BME280;43451;49.060;10.616;2023-02-17T10:39:15;97453.06;;;9.70;100.00
57628;BME280;43451;49.060;10.616;2023-02-17T10:41:50;97452.03;;;9.79;100.00
57628;BME280;43451;49.060;10.616;2023-02-17T10:44:20;97442.63;;;9.72;100.00
57628;BME280;43451;49.060;10.616;2023-02-17T10:46:46;97435.47;;;9.87;100.00
57628;BME280;43451;49.060;10.616;2023-02-17T10:49:34;97444.81;;;9.90;100.00
57628;BME280;43451;49.060;10.616;2023-02-17T10:55:03;97437.28;;;10.10;100.00
57628;BME280;43451;49.060;10.616;2023-02-17T10:57:34;97438.84;;;10.11;100.00
57628;BME280;43451;49.060;10.616;2023-02-17T11:00:04;97425.09;;;10.27;100.00
57628;BME280;43451;49.060;10.616;2023-02-17T11:02:37;97447.84;;;10.52;100.00
57628;BME280;43451;49.060;10.616;2023-02-17T11:05:04;97436.06;;;10.37;100.00
57628;BME280;43451;49.060;10.616;2023-02-17T11:07:40;97451.34;;;10.19;100.00
57628;BME280;43451;49.060;10.616;2023-02-17T11:10:28;97444.44;;;10.25;100.00
57628;BME280;43451;49.060;10.616;2023-02-17T11:12:55;97453.44;;;10.29;100.00
57628;BME280;43451;49.060;10.616;2023-02-17T11:15:26;97448.88;;;10.07;100.00
57628;BME280;43451;49.060;10.616;2023-02-17T11:17:52;97442.72;;;10.10;100.00
57628;BME280;43451;49.060;10.616;2023-02-17T11:22:47;97421.75;;;10.07;100.00
57628;BME280;43451;49.060;10.616;2023-02-17T11:25:30;97434.53;;;10.06;100.00
57628;BME280;43451;49.060;10.616;2023-02-17T11:28:04;97416.66;;;10.05;100.00
57628;BME280;43451;49.060;10.616;2023-02-17T11:30:31;97418.78;;;10.19;100.00
57628;BME280;43451;49.060;10.616;2023-02-17T11:32:57;97418.75;;;10.15;100.00
57628;BME280;43451;49.060;10.616;2023-02-17T11:38:13;97429.94;;;10.44;100.00
57628;BME280;43451;49.060;10.616;2023-02-17T11:40:39;97427.22;;;10.44;100.00
57628;BME280;43451;49.060;10.616;2023-02-17T11:43:05;97424.88;;;10.46;100.00
57628;BME280;43451;49.060;10.616;2023-02-17T11:48:43;97412.97;;;10.58;100.00
57628;BME280;43451;49.060;10.616;2023-02-17T11:57:35;97413.69;;;10.92;100.00
57628;BME280;43451;49.060;10.616;2023-02-17T12:00:29;97415.44;;;10.33;100.00
57628;BME280;43451;49.060;10.616;2023-02-17T12:08:29;97407.00;;;10.08;100.00
57628;BME280;43451;49.060;10.616;2023-02-17T12:13:59;97415.59;;;10.13;100.00
57628;BME280;43451;49.060;10.616;2023-02-17T12:16:58;97408.28;;;9.84;100.00
57628;BME280;43451;49.060;10.616;2023-02-17T12:25:26;97404.28;;;9.74;100.00
57628;BME280;43451;49.060;10.616;2023-02-17T12:31:35;97406.69;;;9.83;100.00
57628;BME280;43451;49.060;10.616;2023-02-17T12:36:46;97409.09;;;9.88;100.00
57628;BME280;43451;49.060;10.616;2023-02-17T12:41:58;97396.91;;;10.08;100.00
57628;BME280;43451;49.060;10.616;2023-02-17T12:44:28;97390.44;;;10.16;100.00
57628;BME280;43451;49.060;10.616;2023-02-17T12:47:17;97384.97;;;10.50;100.00
57628;BME280;43451;49.060;10.616;2023-02-17T12:49:58;97399.03;;;10.59;100.00
57628;BME280;43451;49.060;10.616;2023-02-17T12:52:33;97380.41;;;10.61;100.00
57628;BME280;43451;49.060;10.616;2023-02-17T12:57:50;97382.34;;;10.61;100.00
57628;BME280;43451;49.060;10.616;2023-02-17T13:00:33;97388.84;;;10.49;100.00
57628;BME280;43451;49.060;10.616;2023-02-17T13:03:04;97387.25;;;10.44;100.00
57628;BME280;43451;49.060;10.616;2023-02-17T13:05:33;97378.72;;;10.46;100.00
57628;BME280;43451;49.060;10.616;2023-02-17T13:08:04;97389.53;;;10.39;100.00
57628;BME280;43451;49.060;10.616;2023-02-17T13:10:34;97377.63;;;10.17;100.00
57628;BME280;43451;49.060;10.616;2023-02-17T13:13:25;97390.81;;;10.15;100.00
57628;BME280;43451;49.060;10.616;2023-02-17T13:18:31;97376.66;;;9.98;100.00
57628;BME280;43451;49.060;10.616;2023-02-17T13:24:36;97372.09;;;10.06;100.00
57628;BME280;43451;49.060;10.616;2023-02-17T13:27:11;97377.28;;;10.18;100.00
57628;BME280;43451;49.060;10.616;2023-02-17T13:29:37;97359.44;;;10.21;100.00
57628;BME280;43451;49.060;10.616;2023-02-17T13:32:09;97367.78;;;10.39;100.00
57628;BME280;43451;49.060;10.616;2023-02-17T13:34:40;97372.13;;;10.10;100.00
57628;BME280;43451;49.060;10.616;2023-02-17T13:43:06;97367.84;;;10.46;100.00
57628;BME280;43451;49.060;10.616;2023-02-17T13:45:38;97374.13;;;10.54;100.00
57628;BME280;43451;49.060;10.616;2023-02-17T13:55:58;97373.72;;;10.52;100.00
57628;BME280;43451;49.060;10.616;2023-02-17T13:58:27;97370.50;;;10.39;100.00
57628;BME280;43451;49.060;10.616;2023-02-17T14:00:54;97361.59;;;10.42;100.00
57628;BME280;43451;49.060;10.616;2023-02-17T14:03:28;97365.59;;;10.55;100.00
57628;BME280;43451;49.060;10.616;2023-02-17T14:05:56;97360.28;;;10.66;100.00
57628;BME280;43451;49.060;10.616;2023-02-17T14:08:34;97351.44;;;10.80;100.00
57628;BME280;43451;49.060;10.616;2023-02-17T14:13:36;97333.97;;;10.81;100.00
57628;BME280;43451;49.060;10.616;2023-02-17T14:16:03;97353.97;;;10.58;100.00
57628;BME280;43451;49.060;10.616;2023-02-17T14:18:39;97355.38;;;10.86;100.00
57628;BME280;43451;49.060;10.616;2023-02-17T14:21:24;97352.13;;;10.66;100.00
57628;BME280;43451;49.060;10.616;2023-02-17T14:23:52;97360.69;;;10.72;100.00
57628;BME280;43451;49.060;10.616;2023-02-17T14:26:45;97355.19;;;10.64;100.00
57628;BME280;43451;49.060;10.616;2023-02-17T14:29:11;97356.06;;;10.76;100.00
57628;BME280;43451;49.060;10.616;2023-02-17T14:31:46;97355.50;;;11.04;100.00
57628;BME280;43451;49.060;10.616;2023-02-17T14:34:27;97349.03;;;11.23;100.00